sensor_id;sensor_type;location;lat;lon;timestamp;P1;durP1;ratioP1;P2;durP2;ratioP2
10416;SDS011;62605;49.432;8.680;2023-04-02T00:01:37;0.70;;;0.70;;
10416;SDS011;62605;49.432;8.680;2023-04-02T00:04:13;0.77;;;0.77;;
10416;SDS011;62605;49.432;8.680;2023-04-02T00:06:47;0.70;;;0.70;;
10416;SDS011;62605;49.432;8.680;2023-04-02T00:09:24;1.00;;;0.80;;
10416;SDS011;62605;49.432;8.680;2023-04-02T00:11:56;3.70;;;0.87;;
10416;SDS011;62605;49.432;8.680;2023-04-02T00:14:30;3.17;;;1.00;;
10416;SDS011;62605;49.432;8.680;2023-04-02T00:17:03;1.37;;;0.93;;
10416;SDS011;62605;49.432;8.680;2023-04-02T00:19:34;4.00;;;1.07;;
10416;SDS011;62605;49.432;8.680;2023-04-02T00:22:05;0.80;;;0.80;;
10416;SDS011;62605;49.432;8.680;2023-04-02T00:24:38;2.70;;;1.13;;
10416;SDS011;62605;49.432;8.680;2023-04-02T00:27:08;2.90;;;0.73;;
10416;SDS011;62605;49.432;8.680;2023-04-02T00:29:43;4.70;;;0.70;;
10416;SDS011;62605;49.432;8.680;2023-04-02T00:32:14;2.63;;;1.20;;
10416;SDS011;62605;49.432;8.680;2023-04-02T00:34:46;0.70;;;0.70;;
10416;SDS011;62605;49.432;8.680;2023-04-02T00:37:17;2.03;;;0.83;;
10416;SDS011;62605;49.432;8.680;2023-04-02T00:39:50;1.10;;;0.80;;
10416;SDS011;62605;49.432;8.680;2023-04-02T00:42:21;0.90;;;0.90;;
10416;SDS011;62605;49.432;8.680;2023-04-02T00:44:50;1.10;;;1.00;;
10416;SDS011;62605;49.432;8.680;2023-04-02T00:47:21;1.70;;;0.80;;
10416;SDS011;62605;49.432;8.680;2023-04-02T00:49:52;2.10;;;0.80;;
10416;SDS011;62605;49.432;8.680;2023-04-02T00:52:22;1.20;;;1.07;;
10416;SDS011;62605;49.432;8.680;2023-04-02T00:54:58;1.33;;;0.70;;
10416;SDS011;62605;49.432;8.680;2023-04-02T00:57:33;0.83;;;0.80;;
10416;SDS011;62605;49.432;8.680;2023-04-02T01:00:09;1.07;;;1.00;;
10416;SDS011;62605;49.432;8.680;2023-04-02T01:05:54;1.20;;;0.90;;
10416;SDS011;62605;49.432;8.680;2023-04-02T01:08:29;1.77;;;0.80;;
10416;SDS011;62605;49.432;8.680;2023-04-02T01:11:08;4.30;;;1.00;;
10416;SDS011;62605;49.432;8.680;2023-04-02T01:13:47;1.27;;;0.83;;
10416;SDS011;62605;49.432;8.680;2023-04-02T01:16:22;0.80;;;0.80;;
10416;SDS011;62605;49.432;8.680;2023-04-02T01:19:05;5.53;;;1.17;;
10416;SDS011;62605;49.432;8.680;2023-04-02T01:21:49;1.83;;;1.00;;
10416;SDS011;62605;49.432;8.680;2023-04-02T01:24:28;4.80;;;1.03;;
10416;SDS011;62605;49.432;8.680;2023-04-02T01:27:06;1.47;;;0.93;;
10416;SDS011;62605;49.432;8.680;2023-04-02T01:29:45;1.70;;;1.00;;
10416;SDS011;62605;49.432;8.680;2023-04-02T01:32:16;0.90;;;0.80;;
10416;SDS011;62605;49.432;8.680;2023-04-02T01:34:46;2.17;;;1.00;;
10416;SDS011;62605;49.432;8.680;2023-04-02T01:37:23;3.07;;;1.00;;
10416;SDS011;62605;49.432;8.680;2023-04-02T01:42:54;0.90;;;0.90;;
10416;SDS011;62605;49.432;8.680;2023-04-02T01:45:30;0.90;;;0.90;;
10416;SDS011;62605;49.432;8.680;2023-04-02T01:48:00;1.10;;;1.00;;
10416;SDS011;62605;49.432;8.680;2023-04-02T01:50:32;0.90;;;0.90;;
10416;SDS011;62605;49.432;8.680;2023-04-02T01:53:07;1.53;;;1.13;;
10416;SDS011;62605;49.432;8.680;2023-04-02T01:55:39;1.07;;;0.97;;
10416;SDS011;62605;49.432;8.680;2023-04-02T01:58:13;1.57;;;1.03;;
10416;SDS011;62605;49.432;8.680;2023-04-02T02:01:02;1.83;;;1.10;;
10416;SDS011;62605;49.432;8.680;2023-04-02T02:03:32;1.33;;;1.00;;
10416;SDS011;62605;49.432;8.680;2023-04-02T02:06:02;0.80;;;0.80;;
10416;SDS011;62605;49.432;8.680;2023-04-02T02:08:36;1.20;;;1.10;;
10416;SDS011;62605;49.432;8.680;2023-04-02T02:11:09;1.00;;;1.00;;
10416;SDS011;62605;49.432;8.680;2023-04-02T02:13:44;3.40;;;1.10;;
10416;SDS011;62605;49.432;8.680;2023-04-02T02:19:05;1.20;;;0.87;;
10416;SDS011;62605;49.432;8.680;2023-04-02T02:21:57;2.10;;;1.17;;
10416;SDS011;62605;49.432;8.680;2023-04-02T02:24:38;1.77;;;1.13;;
10416;SDS011;62605;49.432;8.680;2023-04-02T02:27:14;2.37;;;1.00;;
10416;SDS011;62605;49.432;8.680;2023-04-02T02:30:14;1.67;;;1.37;;
10416;SDS011;62605;49.432;8.680;2023-04-02T02:32:52;1.00;;;0.90;;
10416;SDS011;62605;49.432;8.680;2023-04-02T02:35:27;1.20;;;1.10;;
10416;SDS011;62605;49.432;8.680;2023-04-02T02:38:00;1.20;;;1.10;;
10416;SDS011;62605;49.432;8.680;2023-04-02T02:40:38;0.97;;;0.97;;
10416;SDS011;62605;49.432;8.680;2023-04-02T02:43:11;1.33;;;1.00;;
10416;SDS011;62605;49.432;8.680;2023-04-02T02:45:41;0.87;;;0.87;;
10416;SDS011;62605;49.432;8.680;2023-04-02T02:48:14;1.10;;;1.00;;
10416;SDS011;62605;49.432;8.680;2023-04-02T02:50:48;1.27;;;1.17;;
10416;SDS011;62605;49.432;8.680;2023-04-02T02:53:19;1.03;;;1.00;;
10416;SDS011;62605;49.432;8.680;2023-04-02T02:55:51;1.27;;;0.97;;
10416;SDS011;62605;49.432;8.680;2023-04-02T02:58:27;3.67;;;1.23;;
10416;SDS011;62605;49.432;8.680;2023-04-02T03:00:56;1.37;;;1.10;;
10416;SDS011;62605;49.432;8.680;2023-04-02T03:03:41;1.37;;;1.23;;
10416;SDS011;62605;49.432;8.680;2023-04-02T03:06:09;3.40;;;1.23;;
10416;SDS011;62605;49.432;8.680;2023-04-02T03:08:41;2.47;;;1.60;;
10416;SDS011;62605;49.432;8.680;2023-04-02T03:11:15;1.23;;;1.13;;
10416;SDS011;62605;49.432;8.680;2023-04-02T03:13:48;2.23;;;1.10;;
10416;SDS011;62605;49.432;8.680;2023-04-02T03:16:19;1.13;;;1.13;;
10416;SDS011;62605;49.432;8.680;2023-04-02T03:18:54;1.60;;;1.17;;
10416;SDS011;62605;49.432;8.680;2023-04-02T03:21:30;2.17;;;1.03;;
10416;SDS011;62605;49.432;8.680;2023-04-02T03:24:11;4.13;;;1.23;;
10416;SDS011;62605;49.432;8.680;2023-04-02T03:26:48;1.50;;;1.40;;
10416;SDS011;62605;49.432;8.680;2023-04-02T03:29:33;2.83;;;1.33;;
10416;SDS011;62605;49.432;8.680;2023-04-02T03:32:15;2.53;;;1.37;;
10416;SDS011;62605;49.432;8.680;2023-04-02T03:34:52;1.30;;;1.20;;
10416;SDS011;62605;49.432;8.680;2023-04-02T03:37:27;2.63;;;1.33;;
10416;SDS011;62605;49.432;8.680;2023-04-02T03:40:00;3.03;;;1.63;;
10416;SDS011;62605;49.432;8.680;2023-04-02T03:42:36;4.10;;;1.40;;
10416;SDS011;62605;49.432;8.680;2023-04-02T03:45:10;1.33;;;1.23;;
10416;SDS011;62605;49.432;8.680;2023-04-02T03:47:44;1.73;;;1.50;;
10416;SDS011;62605;49.432;8.680;2023-04-02T03:50:24;1.43;;;1.23;;
10416;SDS011;62605;49.432;8.680;2023-04-02T03:52:58;1.60;;;1.50;;
10416;SDS011;62605;49.432;8.680;2023-04-02T03:55:28;2.73;;;1.70;;
10416;SDS011;62605;49.432;8.680;2023-04-02T03:58:00;1.67;;;1.23;;
10416;SDS011;62605;49.432;8.680;2023-04-02T04:00:37;1.70;;;1.30;;
10416;SDS011;62605;49.432;8.680;2023-04-02T04:03:13;3.37;;;1.60;;
10416;SDS011;62605;49.432;8.680;2023-04-02T04:05:47;2.60;;;1.40;;
10416;SDS011;62605;49.432;8.680;2023-04-02T04:08:21;2.40;;;1.77;;
10416;SDS011;62605;49.432;8.680;2023-04-02T04:10:58;4.30;;;1.33;;
10416;SDS011;62605;49.432;8.680;2023-04-02T04:13:40;3.00;;;1.80;;
10416;SDS011;62605;49.432;8.680;2023-04-02T04:16:13;1.70;;;1.50;;
10416;SDS011;62605;49.432;8.680;2023-04-02T04:18:46;1.93;;;1.30;;
10416;SDS011;62605;49.432;8.680;2023-04-02T04:21:30;1.60;;;1.50;;
10416;SDS011;62605;49.432;8.680;2023-04-02T04:24:03;2.37;;;1.40;;
10416;SDS011;62605;49.432;8.680;2023-04-02T04:26:37;2.23;;;1.37;;
10416;SDS011;62605;49.432;8.680;2023-04-02T04:29:15;1.10;;;0.93;;
10416;SDS011;62605;49.432;8.680;2023-04-02T04:31:56;1.73;;;1.47;;
10416;SDS011;62605;49.432;8.680;2023-04-02T04:34:38;1.50;;;1.40;;
10416;SDS011;62605;49.432;8.680;2023-04-02T04:37:17;2.63;;;1.63;;
10416;SDS011;62605;49.432;8.680;2023-04-02T04:39:49;1.47;;;1.37;;
10416;SDS011;62605;49.432;8.680;2023-04-02T04:42:22;3.20;;;1.20;;
10416;SDS011;62605;49.432;8.680;2023-04-02T04:44:54;3.47;;;1.33;;
10416;SDS011;62605;49.432;8.680;2023-04-02T04:47:30;1.80;;;1.50;;
10416;SDS011;62605;49.432;8.680;2023-04-02T04:50:09;1.47;;;1.37;;
10416;SDS011;62605;49.432;8.680;2023-04-02T04:52:41;2.67;;;1.90;;
10416;SDS011;62605;49.432;8.680;2023-04-02T04:57:58;1.07;;;1.00;;
10416;SDS011;62605;49.432;8.680;2023-04-02T05:00:32;1.97;;;1.23;;
10416;SDS011;62605;49.432;8.680;2023-04-02T05:03:09;1.73;;;1.50;;
10416;SDS011;62605;49.432;8.680;2023-04-02T05:05:43;1.60;;;1.40;;
10416;SDS011;62605;49.432;8.680;2023-04-02T05:08:12;1.67;;;1.57;;
10416;SDS011;62605;49.432;8.680;2023-04-02T05:10:44;1.33;;;1.20;;
10416;SDS011;62605;49.432;8.680;2023-04-02T05:13:16;1.43;;;1.33;;
10416;SDS011;62605;49.432;8.680;2023-04-02T05:15:49;1.47;;;1.37;;
10416;SDS011;62605;49.432;8.680;2023-04-02T05:18:27;4.00;;;1.50;;
10416;SDS011;62605;49.432;8.680;2023-04-02T05:21:02;1.20;;;1.10;;
10416;SDS011;62605;49.432;8.680;2023-04-02T05:23:36;3.47;;;1.30;;
10416;SDS011;62605;49.432;8.680;2023-04-02T05:26:15;1.40;;;1.30;;
10416;SDS011;62605;49.432;8.680;2023-04-02T05:28:50;1.43;;;1.33;;
10416;SDS011;62605;49.432;8.680;2023-04-02T05:31:24;4.13;;;1.23;;
10416;SDS011;62605;49.432;8.680;2023-04-02T05:33:57;1.93;;;1.10;;
10416;SDS011;62605;49.432;8.680;2023-04-02T05:36:26;1.73;;;1.30;;
10416;SDS011;62605;49.432;8.680;2023-04-02T05:38:57;1.70;;;1.60;;
10416;SDS011;62605;49.432;8.680;2023-04-02T05:41:26;2.50;;;1.33;;
10416;SDS011;62605;49.432;8.680;2023-04-02T05:44:14;1.23;;;1.20;;
10416;SDS011;62605;49.432;8.680;2023-04-02T05:46:49;1.50;;;1.40;;
10416;SDS011;62605;49.432;8.680;2023-04-02T05:49:50;1.27;;;1.10;;
10416;SDS011;62605;49.432;8.680;2023-04-02T05:52:46;1.23;;;1.13;;
10416;SDS011;62605;49.432;8.680;2023-04-02T05:58:14;1.77;;;1.17;;
10416;SDS011;62605;49.432;8.680;2023-04-02T06:01:00;4.27;;;1.27;;
10416;SDS011;62605;49.432;8.680;2023-04-02T06:03:48;1.47;;;1.30;;
10416;SDS011;62605;49.432;8.680;2023-04-02T06:06:21;1.17;;;1.03;;
10416;SDS011;62605;49.432;8.680;2023-04-02T06:09:08;1.07;;;1.03;;
10416;SDS011;62605;49.432;8.680;2023-04-02T06:11:41;0.90;;;0.90;;
10416;SDS011;62605;49.432;8.680;2023-04-02T06:14:12;1.27;;;1.17;;
10416;SDS011;62605;49.432;8.680;2023-04-02T06:16:41;1.30;;;1.00;;
10416;SDS011;62605;49.432;8.680;2023-04-02T06:19:12;1.23;;;1.10;;
10416;SDS011;62605;49.432;8.680;2023-04-02T06:21:44;1.53;;;1.07;;
10416;SDS011;62605;49.432;8.680;2023-04-02T06:24:14;1.17;;;1.07;;
10416;SDS011;62605;49.432;8.680;2023-04-02T06:26:47;1.73;;;1.30;;
10416;SDS011;62605;49.432;8.680;2023-04-02T06:29:19;0.90;;;0.83;;
10416;SDS011;62605;49.432;8.680;2023-04-02T06:31:54;1.97;;;1.30;;
10416;SDS011;62605;49.432;8.680;2023-04-02T06:34:25;1.50;;;0.97;;
10416;SDS011;62605;49.432;8.680;2023-04-02T06:36:54;1.53;;;1.20;;
10416;SDS011;62605;49.432;8.680;2023-04-02T06:39:24;1.17;;;1.07;;
10416;SDS011;62605;49.432;8.680;2023-04-02T06:41:59;1.13;;;1.03;;
10416;SDS011;62605;49.432;8.680;2023-04-02T06:44:29;1.27;;;1.03;;
10416;SDS011;62605;49.432;8.680;2023-04-02T06:47:00;1.43;;;1.27;;
10416;SDS011;62605;49.432;8.680;2023-04-02T06:49:31;0.80;;;0.80;;
10416;SDS011;62605;49.432;8.680;2023-04-02T06:52:04;2.83;;;1.00;;
10416;SDS011;62605;49.432;8.680;2023-04-02T06:54:38;1.37;;;1.27;;
10416;SDS011;62605;49.432;8.680;2023-04-02T06:57:08;1.30;;;1.20;;
10416;SDS011;62605;49.432;8.680;2023-04-02T06:59:38;1.20;;;1.10;;
10416;SDS011;62605;49.432;8.680;2023-04-02T07:02:13;1.63;;;1.07;;
10416;SDS011;62605;49.432;8.680;2023-04-02T07:04:47;2.07;;;1.30;;
10416;SDS011;62605;49.432;8.680;2023-04-02T07:07:15;1.37;;;1.20;;
10416;SDS011;62605;49.432;8.680;2023-04-02T07:09:42;2.43;;;1.40;;
10416;SDS011;62605;49.432;8.680;2023-04-02T07:12:12;1.73;;;1.40;;
10416;SDS011;62605;49.432;8.680;2023-04-02T07:14:40;1.27;;;1.13;;
10416;SDS011;62605;49.432;8.680;2023-04-02T07:17:09;2.13;;;1.30;;
10416;SDS011;62605;49.432;8.680;2023-04-02T07:19:41;1.10;;;1.10;;
10416;SDS011;62605;49.432;8.680;2023-04-02T07:22:09;1.20;;;1.10;;
10416;SDS011;62605;49.432;8.680;2023-04-02T07:24:37;1.60;;;1.10;;
10416;SDS011;62605;49.432;8.680;2023-04-02T07:27:04;1.53;;;1.40;;
10416;SDS011;62605;49.432;8.680;2023-04-02T07:29:33;1.10;;;1.10;;
10416;SDS011;62605;49.432;8.680;2023-04-02T07:32:01;1.47;;;1.30;;
10416;SDS011;62605;49.432;8.680;2023-04-02T07:34:28;1.50;;;1.33;;
10416;SDS011;62605;49.432;8.680;2023-04-02T07:36:55;1.80;;;1.40;;
10416;SDS011;62605;49.432;8.680;2023-04-02T07:39:22;1.50;;;1.40;;
10416;SDS011;62605;49.432;8.680;2023-04-02T07:41:50;2.90;;;1.33;;
10416;SDS011;62605;49.432;8.680;2023-04-02T07:44:18;1.50;;;1.40;;
10416;SDS011;62605;49.432;8.680;2023-04-02T07:46:46;1.50;;;1.40;;
10416;SDS011;62605;49.432;8.680;2023-04-02T07:49:13;1.87;;;1.60;;
10416;SDS011;62605;49.432;8.680;2023-04-02T07:51:40;2.67;;;1.30;;
10416;SDS011;62605;49.432;8.680;2023-04-02T07:54:07;2.23;;;1.77;;
10416;SDS011;62605;49.432;8.680;2023-04-02T07:56:35;1.90;;;1.53;;
10416;SDS011;62605;49.432;8.680;2023-04-02T07:59:04;2.33;;;1.60;;
10416;SDS011;62605;49.432;8.680;2023-04-02T08:01:31;2.47;;;1.37;;
10416;SDS011;62605;49.432;8.680;2023-04-02T08:04:01;2.57;;;1.73;;
10416;SDS011;62605;49.432;8.680;2023-04-02T08:06:29;2.00;;;1.80;;
10416;SDS011;62605;49.432;8.680;2023-04-02T08:08:57;2.37;;;1.43;;
10416;SDS011;62605;49.432;8.680;2023-04-02T08:11:24;2.13;;;1.93;;
10416;SDS011;62605;49.432;8.680;2023-04-02T08:13:52;2.17;;;1.73;;
10416;SDS011;62605;49.432;8.680;2023-04-02T08:16:19;1.93;;;1.70;;
10416;SDS011;62605;49.432;8.680;2023-04-02T08:18:47;2.43;;;1.87;;
10416;SDS011;62605;49.432;8.680;2023-04-02T08:21:16;1.77;;;1.57;;
10416;SDS011;62605;49.432;8.680;2023-04-02T08:23:43;2.50;;;1.73;;
10416;SDS011;62605;49.432;8.680;2023-04-02T08:26:15;1.63;;;1.47;;
10416;SDS011;62605;49.432;8.680;2023-04-02T08:28:43;3.00;;;1.50;;
10416;SDS011;62605;49.432;8.680;2023-04-02T08:31:10;3.07;;;1.80;;
10416;SDS011;62605;49.432;8.680;2023-04-02T08:33:37;1.93;;;1.60;;
10416;SDS011;62605;49.432;8.680;2023-04-02T08:36:04;4.77;;;1.67;;
10416;SDS011;62605;49.432;8.680;2023-04-02T08:38:33;1.33;;;1.23;;
10416;SDS011;62605;49.432;8.680;2023-04-02T08:41:00;2.90;;;1.93;;
10416;SDS011;62605;49.432;8.680;2023-04-02T08:43:34;1.90;;;1.57;;
10416;SDS011;62605;49.432;8.680;2023-04-02T08:46:15;1.83;;;1.70;;
10416;SDS011;62605;49.432;8.680;2023-04-02T08:48:47;1.67;;;1.57;;
10416;SDS011;62605;49.432;8.680;2023-04-02T08:51:20;1.77;;;1.60;;
10416;SDS011;62605;49.432;8.680;2023-04-02T08:53:51;1.83;;;1.63;;
10416;SDS011;62605;49.432;8.680;2023-04-02T08:56:25;2.20;;;1.73;;
10416;SDS011;62605;49.432;8.680;2023-04-02T08:58:57;1.83;;;1.40;;
10416;SDS011;62605;49.432;8.680;2023-04-02T09:01:29;2.77;;;2.07;;
10416;SDS011;62605;49.432;8.680;2023-04-02T09:04:08;5.13;;;1.47;;
10416;SDS011;62605;49.432;8.680;2023-04-02T09:06:40;2.33;;;1.97;;
10416;SDS011;62605;49.432;8.680;2023-04-02T09:09:11;1.90;;;1.70;;
10416;SDS011;62605;49.432;8.680;2023-04-02T09:11:40;1.77;;;1.43;;
10416;SDS011;62605;49.432;8.680;2023-04-02T09:14:16;1.70;;;1.60;;
10416;SDS011;62605;49.432;8.680;2023-04-02T09:16:47;1.97;;;1.73;;
10416;SDS011;62605;49.432;8.680;2023-04-02T09:19:18;2.17;;;1.97;;
10416;SDS011;62605;49.432;8.680;2023-04-02T09:21:59;1.67;;;1.57;;
10416;SDS011;62605;49.432;8.680;2023-04-02T09:24:33;1.67;;;1.57;;
10416;SDS011;62605;49.432;8.680;2023-04-02T09:27:02;2.23;;;2.03;;
10416;SDS011;62605;49.432;8.680;2023-04-02T09:29:38;1.70;;;1.60;;
10416;SDS011;62605;49.432;8.680;2023-04-02T09:32:29;2.20;;;1.67;;
10416;SDS011;62605;49.432;8.680;2023-04-02T09:35:12;1.77;;;1.63;;
10416;SDS011;62605;49.432;8.680;2023-04-02T09:37:41;2.83;;;1.43;;
10416;SDS011;62605;49.432;8.680;2023-04-02T09:40:24;1.83;;;1.50;;
10416;SDS011;62605;49.432;8.680;2023-04-02T09:43:02;1.50;;;1.40;;
10416;SDS011;62605;49.432;8.680;2023-04-02T09:45:35;1.93;;;1.63;;
10416;SDS011;62605;49.432;8.680;2023-04-02T09:48:02;3.10;;;1.83;;
10416;SDS011;62605;49.432;8.680;2023-04-02T09:50:46;3.60;;;2.10;;
10416;SDS011;62605;49.432;8.680;2023-04-02T09:53:25;1.50;;;1.40;;
10416;SDS011;62605;49.432;8.680;2023-04-02T09:56:08;1.77;;;1.60;;
10416;SDS011;62605;49.432;8.680;2023-04-02T09:58:41;1.87;;;1.60;;
10416;SDS011;62605;49.432;8.680;2023-04-02T10:01:24;1.53;;;1.43;;
10416;SDS011;62605;49.432;8.680;2023-04-02T10:03:54;1.67;;;1.40;;
10416;SDS011;62605;49.432;8.680;2023-04-02T10:06:23;1.60;;;1.50;;
10416;SDS011;62605;49.432;8.680;2023-04-02T10:08:53;1.30;;;1.20;;
10416;SDS011;62605;49.432;8.680;2023-04-02T10:11:22;1.50;;;1.40;;
10416;SDS011;62605;49.432;8.680;2023-04-02T10:13:55;2.70;;;1.60;;
10416;SDS011;62605;49.432;8.680;2023-04-02T10:16:24;1.40;;;1.30;;
10416;SDS011;62605;49.432;8.680;2023-04-02T10:18:57;1.45;;;1.20;;
10416;SDS011;62605;49.432;8.680;2023-04-02T10:21:28;1.50;;;1.40;;
10416;SDS011;62605;49.432;8.680;2023-04-02T10:23:59;1.63;;;1.53;;
10416;SDS011;62605;49.432;8.680;2023-04-02T10:26:34;1.63;;;1.53;;
10416;SDS011;62605;49.432;8.680;2023-04-02T10:29:24;1.35;;;1.25;;
10416;SDS011;62605;49.432;8.680;2023-04-02T10:32:01;1.00;;;1.00;;
10416;SDS011;62605;49.432;8.680;2023-04-02T10:34:34;1.90;;;1.30;;
10416;SDS011;62605;49.432;8.680;2023-04-02T10:37:12;1.33;;;1.23;;
10416;SDS011;62605;49.432;8.680;2023-04-02T10:39:55;1.75;;;1.48;;
10416;SDS011;62605;49.432;8.680;2023-04-02T10:42:30;1.30;;;1.20;;
10416;SDS011;62605;49.432;8.680;2023-04-02T10:45:03;1.42;;;1.33;;
10416;SDS011;62605;49.432;8.680;2023-04-02T10:47:44;1.58;;;1.05;;
10416;SDS011;62605;49.432;8.680;2023-04-02T10:50:23;1.35;;;1.15;;
10416;SDS011;62605;49.432;8.680;2023-04-02T10:52:57;1.58;;;1.40;;
10416;SDS011;62605;49.432;8.680;2023-04-02T10:55:32;3.33;;;1.35;;
10416;SDS011;62605;49.432;8.680;2023-04-02T10:58:12;1.00;;;1.00;;
10416;SDS011;62605;49.432;8.680;2023-04-02T11:00:47;1.27;;;1.20;;
10416;SDS011;62605;49.432;8.680;2023-04-02T11:03:17;1.50;;;1.40;;
10416;SDS011;62605;49.432;8.680;2023-04-02T11:05:55;2.07;;;1.50;;
10416;SDS011;62605;49.432;8.680;2023-04-02T11:08:25;1.60;;;1.50;;
10416;SDS011;62605;49.432;8.680;2023-04-02T11:10:57;1.93;;;1.30;;
10416;SDS011;62605;49.432;8.680;2023-04-02T11:13:30;1.40;;;1.20;;
10416;SDS011;62605;49.432;8.680;2023-04-02T11:16:02;1.30;;;1.20;;
10416;SDS011;62605;49.432;8.680;2023-04-02T11:18:30;1.70;;;1.37;;
10416;SDS011;62605;49.432;8.680;2023-04-02T11:21:01;3.13;;;1.50;;
10416;SDS011;62605;49.432;8.680;2023-04-02T11:23:31;1.63;;;1.50;;
10416;SDS011;62605;49.432;8.680;2023-04-02T11:29:18;2.07;;;1.87;;
10416;SDS011;62605;49.432;8.680;2023-04-02T11:31:50;2.30;;;2.10;;
10416;SDS011;62605;49.432;8.680;2023-04-02T11:37:30;2.57;;;1.83;;
10416;SDS011;62605;49.432;8.680;2023-04-02T11:40:00;1.83;;;1.63;;
10416;SDS011;62605;49.432;8.680;2023-04-02T11:42:31;2.13;;;1.93;;
10416;SDS011;62605;49.432;8.680;2023-04-02T11:45:46;1.57;;;1.40;;
10416;SDS011;62605;49.432;8.680;2023-04-02T11:48:28;3.83;;;1.93;;
10416;SDS011;62605;49.432;8.680;2023-04-02T11:50:58;2.37;;;1.80;;
10416;SDS011;62605;49.432;8.680;2023-04-02T11:53:30;0.70;;;0.70;;
10416;SDS011;62605;49.432;8.680;2023-04-02T11:56:05;0.90;;;0.90;;
10416;SDS011;62605;49.432;8.680;2023-04-02T11:58:47;0.60;;;0.57;;
10416;SDS011;62605;49.432;8.680;2023-04-02T12:01:33;0.53;;;0.53;;
10416;SDS011;62605;49.432;8.680;2023-04-02T12:04:16;0.53;;;0.53;;
10416;SDS011;62605;49.432;8.680;2023-04-02T12:07:28;0.40;;;0.40;;
10416;SDS011;62605;49.432;8.680;2023-04-02T12:10:23;0.53;;;0.40;;
10416;SDS011;62605;49.432;8.680;2023-04-02T12:12:54;0.10;;;0.10;;
10416;SDS011;62605;49.432;8.680;2023-04-02T12:15:31;0.20;;;0.20;;
10416;SDS011;62605;49.432;8.680;2023-04-02T12:18:12;0.10;;;0.10;;
10416;SDS011;62605;49.432;8.680;2023-04-02T12:20:45;0.50;;;0.30;;
10416;SDS011;62605;49.432;8.680;2023-04-02T12:23:17;0.30;;;0.30;;
10416;SDS011;62605;49.432;8.680;2023-04-02T12:25:51;0.30;;;0.30;;
10416;SDS011;62605;49.432;8.680;2023-04-02T12:28:24;0.50;;;0.20;;
10416;SDS011;62605;49.432;8.680;2023-04-02T12:31:01;0.40;;;0.40;;
10416;SDS011;62605;49.432;8.680;2023-04-02T12:33:33;0.53;;;0.40;;
10416;SDS011;62605;49.432;8.680;2023-04-02T12:36:03;0.40;;;0.40;;
10416;SDS011;62605;49.432;8.680;2023-04-02T12:38:34;0.13;;;0.13;;
10416;SDS011;62605;49.432;8.680;2023-04-02T12:41:17;0.20;;;0.20;;
10416;SDS011;62605;49.432;8.680;2023-04-02T12:43:55;0.47;;;0.47;;
10416;SDS011;62605;49.432;8.680;2023-04-02T12:46:22;0.10;;;0.10;;
10416;SDS011;62605;49.432;8.680;2023-04-02T12:48:52;8.30;;;0.40;;
10416;SDS011;62605;49.432;8.680;2023-04-02T12:51:20;0.20;;;0.20;;
10416;SDS011;62605;49.432;8.680;2023-04-02T12:53:48;0.40;;;0.40;;
10416;SDS011;62605;49.432;8.680;2023-04-02T12:56:18;1.50;;;0.40;;
10416;SDS011;62605;49.432;8.680;2023-04-02T12:58:51;0.33;;;0.33;;
10416;SDS011;62605;49.432;8.680;2023-04-02T13:01:19;0.20;;;0.20;;
10416;SDS011;62605;49.432;8.680;2023-04-02T13:03:59;0.30;;;0.30;;
10416;SDS011;62605;49.432;8.680;2023-04-02T13:06:28;0.50;;;0.50;;
10416;SDS011;62605;49.432;8.680;2023-04-02T13:08:56;0.20;;;0.20;;
10416;SDS011;62605;49.432;8.680;2023-04-02T13:11:32;0.40;;;0.40;;
10416;SDS011;62605;49.432;8.680;2023-04-02T13:14:02;0.40;;;0.40;;
10416;SDS011;62605;49.432;8.680;2023-04-02T13:16:32;0.60;;;0.60;;
10416;SDS011;62605;49.432;8.680;2023-04-02T13:19:21;0.40;;;0.33;;
10416;SDS011;62605;49.432;8.680;2023-04-02T13:21:51;0.50;;;0.50;;
10416;SDS011;62605;49.432;8.680;2023-04-02T13:24:20;0.40;;;0.40;;
10416;SDS011;62605;49.432;8.680;2023-04-02T13:26:48;0.53;;;0.53;;
10416;SDS011;62605;49.432;8.680;2023-04-02T13:29:19;0.30;;;0.30;;
10416;SDS011;62605;49.432;8.680;2023-04-02T13:31:52;0.50;;;0.50;;
10416;SDS011;62605;49.432;8.680;2023-04-02T13:34:22;0.40;;;0.40;;
10416;SDS011;62605;49.432;8.680;2023-04-02T13:36:49;0.50;;;0.37;;
10416;SDS011;62605;49.432;8.680;2023-04-02T13:39:17;0.30;;;0.30;;
10416;SDS011;62605;49.432;8.680;2023-04-02T13:41:46;0.40;;;0.40;;
10416;SDS011;62605;49.432;8.680;2023-04-02T13:44:19;0.40;;;0.40;;
10416;SDS011;62605;49.432;8.680;2023-04-02T13:46:47;0.30;;;0.30;;
10416;SDS011;62605;49.432;8.680;2023-04-02T13:49:16;0.47;;;0.33;;
10416;SDS011;62605;49.432;8.680;2023-04-02T13:51:45;0.50;;;0.50;;
10416;SDS011;62605;49.432;8.680;2023-04-02T13:54:19;0.40;;;0.40;;
10416;SDS011;62605;49.432;8.680;2023-04-02T13:56:50;0.60;;;0.60;;
10416;SDS011;62605;49.432;8.680;2023-04-02T13:59:17;0.40;;;0.40;;
10416;SDS011;62605;49.432;8.680;2023-04-02T14:01:44;0.57;;;0.57;;
10416;SDS011;62605;49.432;8.680;2023-04-02T14:04:15;0.50;;;0.50;;
10416;SDS011;62605;49.432;8.680;2023-04-02T14:07:06;0.30;;;0.30;;
10416;SDS011;62605;49.432;8.680;2023-04-02T14:09:54;0.63;;;0.50;;
10416;SDS011;62605;49.432;8.680;2023-04-02T14:12:31;0.60;;;0.60;;
10416;SDS011;62605;49.432;8.680;2023-04-02T14:15:13;0.60;;;0.60;;
10416;SDS011;62605;49.432;8.680;2023-04-02T14:17:50;0.40;;;0.40;;
10416;SDS011;62605;49.432;8.680;2023-04-02T14:20:31;0.47;;;0.47;;
10416;SDS011;62605;49.432;8.680;2023-04-02T14:23:12;0.40;;;0.40;;
10416;SDS011;62605;49.432;8.680;2023-04-02T14:25:59;0.43;;;0.43;;
10416;SDS011;62605;49.432;8.680;2023-04-02T14:28:40;0.37;;;0.37;;
10416;SDS011;62605;49.432;8.680;2023-04-02T14:31:16;0.40;;;0.40;;
10416;SDS011;62605;49.432;8.680;2023-04-02T14:51:10;0.50;;;0.50;;
10416;SDS011;62605;49.432;8.680;2023-04-02T14:53:46;0.50;;;0.50;;
10416;SDS011;62605;49.432;8.680;2023-04-02T14:56:18;0.93;;;0.40;;
10416;SDS011;62605;49.432;8.680;2023-04-02T14:58:50;0.50;;;0.50;;
10416;SDS011;62605;49.432;8.680;2023-04-02T15:01:26;0.50;;;0.50;;
10416;SDS011;62605;49.432;8.680;2023-04-02T15:03:59;0.57;;;0.57;;
10416;SDS011;62605;49.432;8.680;2023-04-02T15:06:32;0.30;;;0.30;;
10416;SDS011;62605;49.432;8.680;2023-04-02T15:09:03;0.30;;;0.30;;
10416;SDS011;62605;49.432;8.680;2023-04-02T15:11:37;0.50;;;0.50;;
10416;SDS011;62605;49.432;8.680;2023-04-02T15:14:10;0.33;;;0.33;;
10416;SDS011;62605;49.432;8.680;2023-04-02T15:16:45;0.30;;;0.30;;
10416;SDS011;62605;49.432;8.680;2023-04-02T15:19:13;0.33;;;0.33;;
10416;SDS011;62605;49.432;8.680;2023-04-02T15:21:46;0.30;;;0.30;;
10416;SDS011;62605;49.432;8.680;2023-04-02T15:24:25;0.33;;;0.33;;
10416;SDS011;62605;49.432;8.680;2023-04-02T15:27:04;0.40;;;0.40;;
10416;SDS011;62605;49.432;8.680;2023-04-02T15:29:40;0.47;;;0.47;;
10416;SDS011;62605;49.432;8.680;2023-04-02T15:32:17;0.50;;;0.50;;
10416;SDS011;62605;49.432;8.680;2023-04-02T15:34:53;0.60;;;0.60;;
10416;SDS011;62605;49.432;8.680;2023-04-02T15:37:29;1.27;;;0.50;;
10416;SDS011;62605;49.432;8.680;2023-04-02T15:43:05;0.50;;;0.40;;
10416;SDS011;62605;49.432;8.680;2023-04-02T15:45:44;0.63;;;0.63;;
10416;SDS011;62605;49.432;8.680;2023-04-02T15:48:25;0.50;;;0.50;;
10416;SDS011;62605;49.432;8.680;2023-04-02T15:51:19;1.70;;;1.00;;
10416;SDS011;62605;49.432;8.680;2023-04-02T15:53:55;0.60;;;0.60;;
10416;SDS011;62605;49.432;8.680;2023-04-02T15:56:33;0.70;;;0.70;;
10416;SDS011;62605;49.432;8.680;2023-04-02T15:59:18;0.80;;;0.80;;
10416;SDS011;62605;49.432;8.680;2023-04-02T16:02:19;0.63;;;0.63;;
10416;SDS011;62605;49.432;8.680;2023-04-02T16:05:11;1.07;;;0.90;;
10416;SDS011;62605;49.432;8.680;2023-04-02T16:07:52;0.50;;;0.50;;
10416;SDS011;62605;49.432;8.680;2023-04-02T16:10:32;0.63;;;0.63;;
10416;SDS011;62605;49.432;8.680;2023-04-02T16:13:00;0.80;;;0.80;;